sensor_id;sensor_type;location;lat;lon;timestamp;pressure;altitude;pressure_sealevel;temperature;humidity
71964;BME280;59834;52.124;5.422;2023-03-14T00:00:18;98882.50;;;9.21;100.00
71964;BME280;59834;52.124;5.422;2023-03-14T00:02:44;98890.22;;;9.23;100.00
71964;BME280;59834;52.124;5.422;2023-03-14T00:05:11;98892.28;;;9.19;100.00
71964;BME280;59834;52.124;5.422;2023-03-14T00:07:39;98897.34;;;9.20;100.00
71964;BME280;59834;52.124;5.422;2023-03-14T00:10:09;98891.28;;;9.20;100.00
71964;BME280;59834;52.124;5.422;2023-03-14T00:12:35;98895.44;;;9.23;100.00
71964;BME280;59834;52.124;5.422;2023-03-14T00:15:03;98888.16;;;9.26;100.00
71964;BME280;59834;52.124;5.422;2023-03-14T00:17:31;98891.16;;;9.31;99.93
71964;BME280;59834;52.124;5.422;2023-03-14T00:19:57;98889.91;;;9.35;98.59
71964;BME280;59834;52.124;5.422;2023-03-14T00:22:31;98888.69;;;9.39;97.83
71964;BME280;59834;52.124;5.422;2023-03-14T00:24:57;98870.97;;;9.43;96.97
71964;BME280;59834;52.124;5.422;2023-03-14T00:27:24;98875.34;;;9.52;95.44
71964;BME280;59834;52.124;5.422;2023-03-14T00:29:50;98876.59;;;9.58;94.29
71964;BME280;59834;52.124;5.422;2023-03-14T00:32:17;98878.09;;;9.60;92.84
71964;BME280;59834;52.124;5.422;2023-03-14T00:34:44;98881.00;;;9.57;93.73
71964;BME280;59834;52.124;5.422;2023-03-14T00:37:10;98880.03;;;9.58;91.83
71964;BME280;59834;52.124;5.422;2023-03-14T00:39:36;98891.00;;;9.62;91.28
71964;BME280;59834;52.124;5.422;2023-03-14T00:42:03;98894.03;;;9.67;90.90
71964;BME280;59834;52.124;5.422;2023-03-14T00:44:29;98894.59;;;9.71;89.13
71964;BME280;59834;52.124;5.422;2023-03-14T00:46:56;98891.44;;;9.67;89.22
71964;BME280;59834;52.124;5.422;2023-03-14T00:49:23;98889.91;;;9.64;89.42
71964;BME280;59834;52.124;5.422;2023-03-14T00:51:50;98889.25;;;9.62;89.88
71964;BME280;59834;52.124;5.422;2023-03-14T00:54:18;98889.25;;;9.62;88.97
71964;BME280;59834;52.124;5.422;2023-03-14T00:56:45;98894.31;;;9.64;90.28
71964;BME280;59834;52.124;5.422;2023-03-14T00:59:11;98887.72;;;9.60;89.78
71964;BME280;59834;52.124;5.422;2023-03-14T01:01:39;98894.31;;;9.64;89.91
71964;BME280;59834;52.124;5.422;2023-03-14T01:04:05;98891.00;;;9.62;89.53
71964;BME280;59834;52.124;5.422;2023-03-14T01:06:32;98894.59;;;9.61;89.77
71964;BME280;59834;52.124;5.422;2023-03-14T01:08:59;98903.41;;;9.60;90.28
71964;BME280;59834;52.124;5.422;2023-03-14T01:11:31;98905.59;;;9.55;90.56
71964;BME280;59834;52.124;5.422;2023-03-14T01:13:58;98903.25;;;9.42;92.11
71964;BME280;59834;52.124;5.422;2023-03-14T01:16:27;98907.25;;;9.36;93.16
71964;BME280;59834;52.124;5.422;2023-03-14T01:18:54;98912.31;;;9.28;93.69
71964;BME280;59834;52.124;5.422;2023-03-14T01:21:24;98915.63;;;9.20;95.26
71964;BME280;59834;52.124;5.422;2023-03-14T01:23:53;98925.75;;;9.14;95.44
71964;BME280;59834;52.124;5.422;2023-03-14T01:26:22;98922.31;;;9.04;98.79
71964;BME280;59834;52.124;5.422;2023-03-14T01:28:52;98930.94;;;8.94;99.73
71964;BME280;59834;52.124;5.422;2023-03-14T01:31:19;98936.00;;;8.86;100.00
71964;BME280;59834;52.124;5.422;2023-03-14T01:33:46;98915.94;;;8.77;100.00
71964;BME280;59834;52.124;5.422;2023-03-14T01:36:13;98918.81;;;8.74;100.00
71964;BME280;59834;52.124;5.422;2023-03-14T01:38:40;98921.66;;;8.71;100.00
71964;BME280;59834;52.124;5.422;2023-03-14T01:41:09;98913.16;;;8.69;100.00
71964;BME280;59834;52.124;5.422;2023-03-14T01:43:37;98922.06;;;8.66;100.00
71964;BME280;59834;52.124;5.422;2023-03-14T01:51:24;98904.59;;;8.57;100.00
71964;BME280;59834;52.124;5.422;2023-03-14T01:53:54;98894.31;;;8.56;100.00
71964;BME280;59834;52.124;5.422;2023-03-14T01:56:24;98890.19;;;8.53;100.00
71964;BME280;59834;52.124;5.422;2023-03-14T01:58:51;98885.09;;;8.52;100.00
71964;BME280;59834;52.124;5.422;2023-03-14T02:01:20;98889.38;;;8.53;100.00
71964;BME280;59834;52.124;5.422;2023-03-14T02:03:53;98889.47;;;8.51;100.00
71964;BME280;59834;52.124;5.422;2023-03-14T02:06:24;98890.31;;;8.52;100.00
71964;BME280;59834;52.124;5.422;2023-03-14T02:08:52;98890.03;;;8.55;100.00
71964;BME280;59834;52.124;5.422;2023-03-14T02:11:20;98892.38;;;8.58;100.00
71964;BME280;59834;52.124;5.422;2023-03-14T02:13:47;98880.75;;;8.62;100.00
71964;BME280;59834;52.124;5.422;2023-03-14T02:16:14;98873.75;;;8.62;100.00
71964;BME280;59834;52.124;5.422;2023-03-14T02:18:41;98880.75;;;8.62;100.00
71964;BME280;59834;52.124;5.422;2023-03-14T02:26:36;98874.13;;;8.58;100.00
71964;BME280;59834;52.124;5.422;2023-03-14T02:29:04;98864.53;;;8.58;100.00
71964;BME280;59834;52.124;5.422;2023-03-14T02:31:32;98868.91;;;8.58;100.00
71964;BME280;59834;52.124;5.422;2023-03-14T02:34:00;98869.88;;;8.57;100.00
71964;BME280;59834;52.124;5.422;2023-03-14T02:36:29;98875.81;;;8.59;100.00
71964;BME280;59834;52.124;5.422;2023-03-14T02:39:14;98874.28;;;8.56;100.00
71964;BME280;59834;52.124;5.422;2023-03-14T02:41:42;98869.75;;;8.58;100.00
71964;BME280;59834;52.124;5.422;2023-03-14T02:44:11;98869.63;;;8.60;100.00
71964;BME280;59834;52.124;5.422;2023-03-14T02:46:38;98870.31;;;8.62;100.00
71964;BME280;59834;52.124;5.422;2023-03-14T02:49:07;98864.16;;;8.63;100.00
71964;BME280;59834;52.124;5.422;2023-03-14T02:51:36;98858.94;;;8.63;100.00
71964;BME280;59834;52.124;5.422;2023-03-14T02:54:03;98856.31;;;8.63;100.00
71964;BME280;59834;52.124;5.422;2023-03-14T02:56:30;98853.81;;;8.61;100.00
71964;BME280;59834;52.124;5.422;2023-03-14T02:58:56;98848.88;;;8.58;100.00
71964;BME280;59834;52.124;5.422;2023-03-14T03:01:24;98851.38;;;8.60;100.00
71964;BME280;59834;52.124;5.422;2023-03-14T03:03:51;98848.75;;;8.60;100.00
71964;BME280;59834;52.124;5.422;2023-03-14T03:06:17;98851.38;;;8.60;100.00
71964;BME280;59834;52.124;5.422;2023-03-14T03:08:44;98848.75;;;8.60;100.00
71964;BME280;59834;52.124;5.422;2023-03-14T03:11:10;98848.50;;;8.63;100.00
71964;BME280;59834;52.124;5.422;2023-03-14T03:13:37;98840.78;;;8.61;100.00
71964;BME280;59834;52.124;5.422;2023-03-14T03:16:04;98845.34;;;8.59;100.00
71964;BME280;59834;52.124;5.422;2023-03-14T03:18:31;98848.06;;;8.58;100.00
71964;BME280;59834;52.124;5.422;2023-03-14T03:21:03;98848.06;;;8.58;100.00
71964;BME280;59834;52.124;5.422;2023-03-14T03:23:30;98844.50;;;8.59;100.00
71964;BME280;59834;52.124;5.422;2023-03-14T03:25:57;98839.16;;;8.60;100.00
71964;BME280;59834;52.124;5.422;2023-03-14T03:28:23;98831.22;;;8.62;100.00
71964;BME280;59834;52.124;5.422;2023-03-14T03:30:50;98830.25;;;8.63;100.00
71964;BME280;59834;52.124;5.422;2023-03-14T03:33:16;98834.63;;;8.62;100.00
71964;BME280;59834;52.124;5.422;2023-03-14T03:35:48;98831.06;;;8.63;100.00
71964;BME280;59834;52.124;5.422;2023-03-14T03:38:15;98838.75;;;8.65;100.00
71964;BME280;59834;52.124;5.422;2023-03-14T03:40:42;98829.97;;;8.66;100.00
71964;BME280;59834;52.124;5.422;2023-03-14T03:43:09;98816.78;;;8.67;100.00
71964;BME280;59834;52.124;5.422;2023-03-14T03:45:36;98817.88;;;8.65;100.00
71964;BME280;59834;52.124;5.422;2023-03-14T03:48:02;98805.81;;;8.64;100.00
71964;BME280;59834;52.124;5.422;2023-03-14T03:50:29;98810.03;;;8.65;100.00
71964;BME280;59834;52.124;5.422;2023-03-14T03:52:55;98813.50;;;8.65;100.00
71964;BME280;59834;52.124;5.422;2023-03-14T03:55:22;98810.47;;;8.70;100.00
71964;BME280;59834;52.124;5.422;2023-03-14T03:57:48;98808.84;;;8.69;99.84
71964;BME280;59834;52.124;5.422;2023-03-14T04:00:15;98816.66;;;8.69;100.00
71964;BME280;59834;52.124;5.422;2023-03-14T04:02:42;98819.28;;;8.69;99.45
71964;BME280;59834;52.124;5.422;2023-03-14T04:05:09;98814.63;;;8.72;99.38
71964;BME280;59834;52.124;5.422;2023-03-14T04:07:35;98810.22;;;8.73;99.41
71964;BME280;59834;52.124;5.422;2023-03-14T04:10:02;98814.47;;;8.74;98.68
71964;BME280;59834;52.124;5.422;2023-03-14T04:12:28;98816.97;;;8.76;98.86
71964;BME280;59834;52.124;5.422;2023-03-14T04:14:55;98814.19;;;8.77;98.28
71964;BME280;59834;52.124;5.422;2023-03-14T04:17:21;98814.91;;;8.79;98.15
71964;BME280;59834;52.124;5.422;2023-03-14T04:19:48;98820.53;;;8.84;97.54
71964;BME280;59834;52.124;5.422;2023-03-14T04:22:17;98819.44;;;8.87;97.79
71964;BME280;59834;52.124;5.422;2023-03-14T04:24:44;98824.50;;;8.88;97.36
71964;BME280;59834;52.124;5.422;2023-03-14T04:27:10;98828.78;;;8.89;97.63
71964;BME280;59834;52.124;5.422;2023-03-14T04:29:37;98820.69;;;8.92;97.49
71964;BME280;59834;52.124;5.422;2023-03-14T04:32:03;98818.91;;;8.93;97.07
71964;BME280;59834;52.124;5.422;2023-03-14T04:34:30;98820.41;;;8.95;96.88
71964;BME280;59834;52.124;5.422;2023-03-14T04:36:56;98820.69;;;8.92;96.72
71964;BME280;59834;52.124;5.422;2023-03-14T04:39:23;98814.63;;;8.92;96.64
71964;BME280;59834;52.124;5.422;2023-03-14T04:41:49;98820.69;;;8.92;97.23
71964;BME280;59834;52.124;5.422;2023-03-14T04:44:16;98811.06;;;8.93;97.16
71964;BME280;59834;52.124;5.422;2023-03-14T04:46:43;98815.47;;;8.92;96.89
71964;BME280;59834;52.124;5.422;2023-03-14T04:49:10;98807.63;;;8.92;97.23
71964;BME280;59834;52.124;5.422;2023-03-14T04:51:36;98802.28;;;8.94;97.03
71964;BME280;59834;52.124;5.422;2023-03-14T04:54:03;98799.53;;;8.95;97.02
71964;BME280;59834;52.124;5.422;2023-03-14T04:56:29;98807.50;;;8.94;97.38
71964;BME280;59834;52.124;5.422;2023-03-14T04:58:56;98808.47;;;8.93;98.01
71964;BME280;59834;52.124;5.422;2023-03-14T05:01:22;98799.66;;;8.94;97.48
71964;BME280;59834;52.124;5.422;2023-03-14T05:03:49;98799.53;;;8.95;96.95
71964;BME280;59834;52.124;5.422;2023-03-14T05:06:16;98801.19;;;8.96;97.37
71964;BME280;59834;52.124;5.422;2023-03-14T05:08:42;98798.69;;;8.95;97.65
71964;BME280;59834;52.124;5.422;2023-03-14T05:11:10;98798.13;;;8.91;98.83
71964;BME280;59834;52.124;5.422;2023-03-14T05:13:36;98803.94;;;8.85;100.00
71964;BME280;59834;52.124;5.422;2023-03-14T05:16:07;98796.22;;;8.74;100.00
71964;BME280;59834;52.124;5.422;2023-03-14T05:18:34;98798.94;;;8.63;100.00
71964;BME280;59834;52.124;5.422;2023-03-14T05:21:02;98797.84;;;8.56;100.00
71964;BME280;59834;52.124;5.422;2023-03-14T05:23:28;98789.59;;;8.50;100.00
71964;BME280;59834;52.124;5.422;2023-03-14T05:25:55;98783.56;;;8.50;100.00
71964;BME280;59834;52.124;5.422;2023-03-14T05:28:22;98780.94;;;8.50;100.00
71964;BME280;59834;52.124;5.422;2023-03-14T05:30:48;98788.22;;;8.46;100.00
71964;BME280;59834;52.124;5.422;2023-03-14T05:33:15;98781.63;;;8.42;100.00
71964;BME280;59834;52.124;5.422;2023-03-14T05:35:42;98779.94;;;8.41;100.00
71964;BME280;59834;52.124;5.422;2023-03-14T05:38:09;98787.09;;;8.39;100.00
71964;BME280;59834;52.124;5.422;2023-03-14T05:40:35;98793.13;;;8.40;100.00
71964;BME280;59834;52.124;5.422;2023-03-14T05:43:02;98787.09;;;8.39;100.00
71964;BME280;59834;52.124;5.422;2023-03-14T05:45:28;98783.75;;;8.37;100.00
71964;BME280;59834;52.124;5.422;2023-03-14T05:47:55;98788.97;;;8.37;100.00
71964;BME280;59834;52.124;5.422;2023-03-14T05:50:21;98778.81;;;8.34;100.00
71964;BME280;59834;52.124;5.422;2023-03-14T05:52:48;98790.06;;;8.35;100.00
71964;BME280;59834;52.124;5.422;2023-03-14T05:55:14;98787.59;;;8.33;100.00
71964;BME280;59834;52.124;5.422;2023-03-14T05:57:41;98793.88;;;8.31;100.00
71964;BME280;59834;52.124;5.422;2023-03-14T06:00:08;98782.66;;;8.30;100.00
71964;BME280;59834;52.124;5.422;2023-03-14T06:02:35;98782.78;;;8.29;100.00
71964;BME280;59834;52.124;5.422;2023-03-14T06:05:01;98775.91;;;8.27;100.00
71964;BME280;59834;52.124;5.422;2023-03-14T06:07:28;98782.91;;;8.27;100.00
71964;BME280;59834;52.124;5.422;2023-03-14T06:09:54;98776.88;;;8.26;100.00
71964;BME280;59834;52.124;5.422;2023-03-14T06:12:21;98774.13;;;8.28;100.00
71964;BME280;59834;52.124;5.422;2023-03-14T06:14:47;98774.13;;;8.28;100.00
71964;BME280;59834;52.124;5.422;2023-03-14T06:17:13;98775.09;;;8.27;100.00
71964;BME280;59834;52.124;5.422;2023-03-14T06:19:40;98787.84;;;8.30;100.00
71964;BME280;59834;52.124;5.422;2023-03-14T06:22:06;98780.75;;;8.32;100.00
71964;BME280;59834;52.124;5.422;2023-03-14T06:24:33;98776.34;;;8.33;100.00
71964;BME280;59834;52.124;5.422;2023-03-14T06:26:59;98787.59;;;8.33;100.00
71964;BME280;59834;52.124;5.422;2023-03-14T06:29:26;98787.84;;;8.30;100.00
71964;BME280;59834;52.124;5.422;2023-03-14T06:31:52;98789.75;;;8.28;100.00
71964;BME280;59834;52.124;5.422;2023-03-14T06:34:19;98792.50;;;8.26;100.00
71964;BME280;59834;52.124;5.422;2023-03-14T06:36:45;98803.75;;;8.27;100.00
71964;BME280;59834;52.124;5.422;2023-03-14T06:39:12;98833.25;;;8.27;100.00
71964;BME280;59834;52.124;5.422;2023-03-14T06:41:38;98848.78;;;8.29;100.00
71964;BME280;59834;52.124;5.422;2023-03-14T06:44:05;98861.66;;;8.31;100.00
71964;BME280;59834;52.124;5.422;2023-03-14T06:46:31;98870.28;;;8.31;100.00
71964;BME280;59834;52.124;5.422;2023-03-14T06:48:58;98881.13;;;8.26;100.00
71964;BME280;59834;52.124;5.422;2023-03-14T06:51:24;98900.03;;;8.19;100.00
71964;BME280;59834;52.124;5.422;2023-03-14T06:53:51;98915.59;;;8.09;100.00
71964;BME280;59834;52.124;5.422;2023-03-14T06:56:18;98917.44;;;7.97;100.00
71964;BME280;59834;52.124;5.422;2023-03-14T06:58:44;98931.38;;;7.87;100.00
71964;BME280;59834;52.124;5.422;2023-03-14T07:01:21;98938.28;;;7.76;100.00
71964;BME280;59834;52.124;5.422;2023-03-14T07:03:49;98938.91;;;7.69;100.00
71964;BME280;59834;52.124;5.422;2023-03-14T07:06:15;98944.63;;;7.63;100.00
71964;BME280;59834;52.124;5.422;2023-03-14T07:08:42;98949.34;;;7.57;100.00
71964;BME280;59834;52.124;5.422;2023-03-14T07:11:08;98959.09;;;7.55;100.00
71964;BME280;59834;52.124;5.422;2023-03-14T07:13:40;98974.25;;;7.50;100.00
71964;BME280;59834;52.124;5.422;2023-03-14T07:16:07;98975.44;;;7.46;100.00
71964;BME280;59834;52.124;5.422;2023-03-14T07:18:34;98979.81;;;7.46;100.00
71964;BME280;59834;52.124;5.422;2023-03-14T07:21:01;98986.91;;;7.44;100.00
71964;BME280;59834;52.124;5.422;2023-03-14T07:23:27;99005.13;;;7.44;100.00
71964;BME280;59834;52.124;5.422;2023-03-14T07:25:54;99010.72;;;7.39;100.00
71964;BME280;59834;52.124;5.422;2023-03-14T07:28:20;99024.69;;;7.38;100.00
71964;BME280;59834;52.124;5.422;2023-03-14T07:30:47;99030.13;;;7.35;100.00
71964;BME280;59834;52.124;5.422;2023-03-14T07:33:15;99043.03;;;7.37;100.00
71964;BME280;59834;52.124;5.422;2023-03-14T07:35:42;99056.16;;;7.35;100.00
71964;BME280;59834;52.124;5.422;2023-03-14T07:38:08;99060.56;;;7.35;100.00
71964;BME280;59834;52.124;5.422;2023-03-14T07:40:35;99067.63;;;7.32;100.00
71964;BME280;59834;52.124;5.422;2023-03-14T07:43:01;99081.03;;;7.28;100.00
71964;BME280;59834;52.124;5.422;2023-03-14T07:45:28;99097.69;;;7.25;100.00
71964;BME280;59834;52.124;5.422;2023-03-14T07:47:55;99105.00;;;7.20;100.00
71964;BME280;59834;52.124;5.422;2023-03-14T07:50:27;99116.25;;;7.21;100.00
71964;BME280;59834;52.124;5.422;2023-03-14T07:52:54;99123.13;;;7.22;100.00
71964;BME280;59834;52.124;5.422;2023-03-14T07:55:21;99134.13;;;7.25;100.00
71964;BME280;59834;52.124;5.422;2023-03-14T07:57:48;99139.44;;;7.24;100.00
71964;BME280;59834;52.124;5.422;2023-03-14T08:00:14;99149.16;;;7.22;100.00
71964;BME280;59834;52.124;5.422;2023-03-14T08:02:41;99158.97;;;7.18;100.00
71964;BME280;59834;52.124;5.422;2023-03-14T08:05:08;99188.63;;;7.04;100.00
71964;BME280;59834;52.124;5.422;2023-03-14T08:07:35;99224.69;;;6.74;100.00
71964;BME280;59834;52.124;5.422;2023-03-14T08:10:03;99220.06;;;6.42;100.00
71964;BME280;59834;52.124;5.422;2023-03-14T08:12:30;99240.09;;;6.16;100.00
71964;BME280;59834;52.124;5.422;2023-03-14T08:14:57;99250.84;;;6.11;100.00
71964;BME280;59834;52.124;5.422;2023-03-14T08:17:23;99254.28;;;5.99;100.00
71964;BME280;59834;52.124;5.422;2023-03-14T08:19:52;99271.97;;;5.94;100.00
71964;BME280;59834;52.124;5.422;2023-03-14T08:22:19;99294.06;;;5.87;100.00
71964;BME280;59834;52.124;5.422;2023-03-14T08:24:45;99301.84;;;5.87;100.00
71964;BME280;59834;52.124;5.422;2023-03-14T08:27:12;99300.91;;;5.88;100.00
71964;BME280;59834;52.124;5.422;2023-03-14T08:29:43;99320.88;;;5.87;100.00
71964;BME280;59834;52.124;5.422;2023-03-14T08:32:10;99330.41;;;5.87;100.00
71964;BME280;59834;52.124;5.422;2023-03-14T08:34:36;99344.13;;;5.89;100.00
71964;BME280;59834;52.124;5.422;2023-03-14T08:37:05;99338.72;;;5.79;100.00
71964;BME280;59834;52.124;5.422;2023-03-14T08:39:48;99358.97;;;5.74;100.00
71964;BME280;59834;52.124;5.422;2023-03-14T08:42:15;99365.28;;;5.83;100.00
71964;BME280;59834;52.124;5.422;2023-03-14T08:44:41;99379.88;;;5.98;100.00
71964;BME280;59834;52.124;5.422;2023-03-14T08:47:08;99394.66;;;6.10;99.25
71964;BME280;59834;52.124;5.422;2023-03-14T08:49:35;99406.69;;;6.11;99.34
71964;BME280;59834;52.124;5.422;2023-03-14T08:52:03;99410.25;;;6.10;98.41
71964;BME280;59834;52.124;5.422;2023-03-14T08:54:31;99423.22;;;6.10;95.94
71964;BME280;59834;52.124;5.422;2023-03-14T08:56:57;99434.66;;;6.21;95.42
71964;BME280;59834;52.124;5.422;2023-03-14T08:59:24;99448.47;;;6.21;95.43
71964;BME280;59834;52.124;5.422;2023-03-14T09:01:50;99459.38;;;6.26;93.83
71964;BME280;59834;52.124;5.422;2023-03-14T09:04:17;99473.72;;;6.32;92.82
71964;BME280;59834;52.124;5.422;2023-03-14T09:06:43;99476.53;;;6.42;93.24
71964;BME280;59834;52.124;5.422;2023-03-14T09:09:10;99488.91;;;6.38;92.76
71964;BME280;59834;52.124;5.422;2023-03-14T09:11:36;99499.19;;;6.40;93.48
71964;BME280;59834;52.124;5.422;2023-03-14T09:14:02;99505.84;;;6.44;91.48
71964;BME280;59834;52.124;5.422;2023-03-14T09:16:29;99512.31;;;6.38;91.73
71964;BME280;59834;52.124;5.422;2023-03-14T09:18:55;99530.78;;;6.46;89.61
71964;BME280;59834;52.124;5.422;2023-03-14T09:21:26;99538.81;;;6.56;90.23
71964;BME280;59834;52.124;5.422;2023-03-14T09:23:53;99539.13;;;6.51;88.63
71964;BME280;59834;52.124;5.422;2023-03-14T09:26:20;99550.47;;;6.37;88.01
71964;BME280;59834;52.124;5.422;2023-03-14T09:28:46;99569.75;;;6.21;86.85
71964;BME280;59834;52.124;5.422;2023-03-14T09:31:13;99565.47;;;6.20;88.08
71964;BME280;59834;52.124;5.422;2023-03-14T09:33:40;99570.06;;;6.29;88.04
71964;BME280;59834;52.124;5.422;2023-03-14T09:36:07;99583.38;;;6.37;86.97
71964;BME280;59834;52.124;5.422;2023-03-14T09:38:34;99585.50;;;6.45;87.41
71964;BME280;59834;52.124;5.422;2023-03-14T09:41:03;99600.78;;;6.49;85.47
71964;BME280;59834;52.124;5.422;2023-03-14T09:43:39;99606.72;;;6.51;85.01
71964;BME280;59834;52.124;5.422;2023-03-14T09:46:09;99622.19;;;6.53;84.46
71964;BME280;59834;52.124;5.422;2023-03-14T09:48:37;99633.97;;;6.58;83.64
71964;BME280;59834;52.124;5.422;2023-03-14T09:51:07;99635.97;;;6.68;84.46
71964;BME280;59834;52.124;5.422;2023-03-14T09:53:47;99653.97;;;6.71;84.59
71964;BME280;59834;52.124;5.422;2023-03-14T09:56:17;99658.13;;;6.73;82.12
71964;BME280;59834;52.124;5.422;2023-03-14T09:58:48;99667.72;;;6.85;82.92
71964;BME280;59834;52.124;5.422;2023-03-14T10:01:22;99681.53;;;6.86;83.23
71964;BME280;59834;52.124;5.422;2023-03-14T10:03:53;99676.75;;;6.80;81.39
71964;BME280;59834;52.124;5.422;2023-03-14T10:06:21;99677.72;;;6.92;82.07
71964;BME280;59834;52.124;5.422;2023-03-14T10:08:50;99696.16;;;7.01;81.41
71964;BME280;59834;52.124;5.422;2023-03-14T10:11:17;99707.03;;;6.94;83.73
71964;BME280;59834;52.124;5.422;2023-03-14T10:14:03;99716.34;;;6.98;83.34
71964;BME280;59834;52.124;5.422;2023-03-14T10:16:35;99724.69;;;6.76;83.17
71964;BME280;59834;52.124;5.422;2023-03-14T10:19:05;99733.28;;;6.64;83.91
71964;BME280;59834;52.124;5.422;2023-03-14T10:21:36;99756.78;;;6.35;84.65
71964;BME280;59834;52.124;5.422;2023-03-14T10:24:27;99773.16;;;6.23;86.30
71964;BME280;59834;52.124;5.422;2023-03-14T10:26:58;99782.34;;;6.28;86.63
71964;BME280;59834;52.124;5.422;2023-03-14T10:29:30;99790.53;;;6.49;85.80
71964;BME280;59834;52.124;5.422;2023-03-14T10:32:03;99792.91;;;6.67;85.97
71964;BME280;59834;52.124;5.422;2023-03-14T10:34:35;99795.50;;;6.67;85.75
71964;BME280;59834;52.124;5.422;2023-03-14T10:37:08;99804.81;;;6.83;84.42
71964;BME280;59834;52.124;5.422;2023-03-14T10:39:48;99826.47;;;6.84;84.74
71964;BME280;59834;52.124;5.422;2023-03-14T10:42:27;99837.28;;;6.78;84.68
71964;BME280;59834;52.124;5.422;2023-03-14T10:45:04;99849.66;;;6.60;83.78
71964;BME280;59834;52.124;5.422;2023-03-14T10:47:32;99858.22;;;6.62;83.49
71964;BME280;59834;52.124;5.422;2023-03-14T10:50:30;99868.13;;;6.70;82.40
71964;BME280;59834;52.124;5.422;2023-03-14T10:53:01;99898.75;;;6.79;82.06
71964;BME280;59834;52.124;5.422;2023-03-14T10:55:42;99902.56;;;6.73;80.46
71964;BME280;59834;52.124;5.422;2023-03-14T10:58:24;99918.75;;;6.64;80.96
71964;BME280;59834;52.124;5.422;2023-03-14T11:01:00;99932.78;;;6.47;81.99
71964;BME280;59834;52.124;5.422;2023-03-14T11:03:31;99932.78;;;6.33;81.17
71964;BME280;59834;52.124;5.422;2023-03-14T11:06:20;99947.72;;;6.29;81.23
71964;BME280;59834;52.124;5.422;2023-03-14T11:09:05;99958.03;;;6.31;80.69
71964;BME280;59834;52.124;5.422;2023-03-14T11:11:33;99965.06;;;6.43;78.43
71964;BME280;59834;52.124;5.422;2023-03-14T11:14:27;99968.06;;;6.51;77.67
71964;BME280;59834;52.124;5.422;2023-03-14T11:17:00;99977.53;;;6.52;76.17
71964;BME280;59834;52.124;5.422;2023-03-14T11:22:40;100014.31;;;6.89;72.71
71964;BME280;59834;52.124;5.422;2023-03-14T11:27:44;100018.50;;;7.33;70.43
71964;BME280;59834;52.124;5.422;2023-03-14T11:30:21;100016.66;;;7.35;69.88
71964;BME280;59834;52.124;5.422;2023-03-14T11:35:35;100030.13;;;7.69;69.39
71964;BME280;59834;52.124;5.422;2023-03-14T11:38:17;100043.94;;;7.84;69.81
71964;BME280;59834;52.124;5.422;2023-03-14T11:40:48;100052.50;;;7.86;66.69
71964;BME280;59834;52.124;5.422;2023-03-14T11:43:26;100061.19;;;7.72;63.35
71964;BME280;59834;52.124;5.422;2023-03-14T11:45:58;100073.47;;;7.70;63.25
71964;BME280;59834;52.124;5.422;2023-03-14T11:50:59;100074.22;;;7.72;65.80
71964;BME280;59834;52.124;5.422;2023-03-14T11:54:02;100072.88;;;7.79;66.81
71964;BME280;59834;52.124;5.422;2023-03-14T11:56:38;100087.25;;;7.72;63.74
71964;BME280;59834;52.124;5.422;2023-03-14T11:59:19;100093.41;;;7.56;63.41
71964;BME280;59834;52.124;5.422;2023-03-14T12:02:30;100103.63;;;7.60;65.12
71964;BME280;59834;52.124;5.422;2023-03-14T12:08:21;100112.09;;;7.63;61.88
71964;BME280;59834;52.124;5.422;2023-03-14T12:13:20;100121.50;;;7.93;59.35
71964;BME280;59834;52.124;5.422;2023-03-14T12:15:58;100121.69;;;7.90;62.01
71964;BME280;59834;52.124;5.422;2023-03-14T12:18:28;100133.38;;;7.70;60.22
71964;BME280;59834;52.124;5.422;2023-03-14T12:21:14;100137.41;;;7.47;61.00
71964;BME280;59834;52.124;5.422;2023-03-14T12:23:44;100141.25;;;7.41;60.26
71964;BME280;59834;52.124;5.422;2023-03-14T12:26:24;100155.00;;;7.43;60.26
71964;BME280;59834;52.124;5.422;2023-03-14T12:42:03;100176.72;;;7.71;55.58
71964;BME280;59834;52.124;5.422;2023-03-14T12:46:58;100191.28;;;8.02;55.58
71964;BME280;59834;52.124;5.422;2023-03-14T12:49:32;100209.38;;;8.18;55.51
71964;BME280;59834;52.124;5.422;2023-03-14T12:52:02;100201.06;;;7.98;55.01
71964;BME280;59834;52.124;5.422;2023-03-14T12:59:50;100218.22;;;7.88;55.32
71964;BME280;59834;52.124;5.422;2023-03-14T13:02:40;100224.19;;;7.76;55.31
71964;BME280;59834;52.124;5.422;2023-03-14T13:05:20;100264.94;;;7.48;53.61
71964;BME280;59834;52.124;5.422;2023-03-14T13:10:28;100253.22;;;7.55;52.63
71964;BME280;59834;52.124;5.422;2023-03-14T13:13:17;100260.72;;;7.60;51.32
71964;BME280;59834;52.124;5.422;2023-03-14T13:15:48;100271.81;;;7.78;51.97
71964;BME280;59834;52.124;5.422;2023-03-14T13:18:18;100254.28;;;7.94;51.82
71964;BME280;59834;52.124;5.422;2023-03-14T13:20:53;100267.44;;;7.93;51.13
71964;BME280;59834;52.124;5.422;2023-03-14T13:23:28;100259.16;;;7.86;51.35
71964;BME280;59834;52.124;5.422;2023-03-14T13:25:56;100262.56;;;8.01;51.66
71964;BME280;59834;52.124;5.422;2023-03-14T13:28:23;100279.97;;;8.15;50.65
71964;BME280;59834;52.124;5.422;2023-03-14T13:30:55;100294.94;;;8.11;50.62
71964;BME280;59834;52.124;5.422;2023-03-14T13:33:23;100294.84;;;8.41;51.62
71964;BME280;59834;52.124;5.422;2023-03-14T13:38:24;100316.47;;;7.86;49.85
71964;BME280;59834;52.124;5.422;2023-03-14T13:40:54;100312.75;;;7.62;49.89
71964;BME280;59834;52.124;5.422;2023-03-14T13:43:29;100335.41;;;7.45;51.91
71964;BME280;59834;52.124;5.422;2023-03-14T13:46:12;100342.53;;;7.86;51.82
71964;BME280;59834;52.124;5.422;2023-03-14T13:48:45;100340.22;;;8.10;50.97
71964;BME280;59834;52.124;5.422;2023-03-14T13:51:15;100343.28;;;8.17;50.46
71964;BME280;59834;52.124;5.422;2023-03-14T13:53:44;100343.00;;;8.07;50.44
71964;BME280;59834;52.124;5.422;2023-03-14T13:56:11;100349.06;;;8.22;51.04
71964;BME280;59834;52.124;5.422;2023-03-14T13:58:39;100361.34;;;8.20;51.07
71964;BME280;59834;52.124;5.422;2023-03-14T14:01:16;100373.25;;;8.10;52.29
71964;BME280;59834;52.124;5.422;2023-03-14T14:03:46;100391.88;;;7.89;51.92
71964;BME280;59834;52.124;5.422;2023-03-14T14:06:25;100387.38;;;7.77;54.15
71964;BME280;59834;52.124;5.422;2023-03-14T14:08:59;100404.91;;;7.59;53.09